Terminal Aerodrome Forecast
Issued by NWS

Home | Current Version | Previous Version | Text Only | Print | Product List | Glossary On
Versions: 1 2 3 4 5 6 7 8 9 10 11 12 13
514
FTUS45 KTFX 291120
TAFLWT
TAF
KLWT 291120Z 2912/3012 23010KT P6SM SCT070
     FM291600 24015G22KT P6SM BKN070
     FM300100 22010KT P6SM BKN050
     FM300900 21006KT 6SM -RA FEW030 BKN045=

USA.gov is the U.S. government's official web portal to all federal, state and local government web resources and services.